Overton, Nevada Weather observations

Data are for observation ending at time listed.
 Day   Time    Ave.   Ave.  Ave.  Vector   Max.   Stn.    Total    Solar   Ave.  
  of    of     Air    Rel.  Wind   Wind    Wind   Baro.  Precip.   Rad.    Soil  
Year   Day     Temp.  Hum.  Speed  Dir.    Gust   Pres.                    Temp. 
2015   (PST)    F      %     mph   deg.    mph     mb.     in.     W/m2     F   
------------------------------------------------------------------------------
 141    0:00   62.9    30    1.2   287      2.3   961.5    0.00       0    73.0
 141    0:10   62.9    29    1.5   293      2.9   961.4    0.00       0    72.8
 141    0:20   62.8    29    1.0   304      2.3   961.4    0.00       0    72.6
 141    0:30   61.5    32    1.5   301      2.4   961.4    0.00       0    72.4
 141    0:40   61.2    31    2.3   292      4.6   961.3    0.00       0    72.2
 141    0:50   62.2    30    2.2   306      5.0   961.3    0.00       0    72.0
 141    1:00   62.4    29    3.1   305      4.6   961.3    0.00       0    71.8
 141    1:10   62.3    30    2.8   298      4.2   961.3    0.00       0    71.6
 141    1:20   61.9    30    1.2   287      3.1   961.3    0.00       0    71.4
 141    1:30   59.3    36    1.5   322      2.6   961.3    0.00       0    71.2
 141    1:40   58.2    39    1.8   321      2.5   961.2    0.00       0    71.0
 141    1:50   57.5    38    1.9   320      3.1   961.1    0.00       0    70.8
 141    2:00   57.6    38    2.0   328      3.7   961.1    0.00       0    70.6
 141    2:10   57.6    38    1.3   291      2.6   961.1    0.00       0    70.4
 141    2:20   58.5    35    1.1   302      2.6   961.1    0.00       0    70.2
 141    2:30   58.4    36    1.5   310      2.3   961.1    0.00       0    70.0
 141    2:40   58.1    36    1.7   284      2.8   961.1    0.00       0    69.8
 141    2:50   59.5    32    2.0   271      3.4   961.1    0.00       0    69.6
 141    3:00   60.1    31    1.9   287      3.3   961.2    0.00       0    69.5
 141    3:10   58.7    34    2.6   305      3.4   961.2    0.00       0    69.3
 141    3:20   57.4    36    1.9   315      3.0   961.2    0.00       0    69.2
 141    3:30   57.0    38    2.4   319      2.9   961.2    0.00       0    69.0
 141    3:40   56.9    38    2.0   305      3.1   961.2    0.00       0    68.9
 141    3:50   56.8    38    0.8   300      2.5   961.2    0.00       0    68.8
 141    4:00   56.8    38    2.4   298      4.2   961.2    0.00       0    68.6
 141    4:10   57.0    37    1.4   285      3.7   961.2    0.00       0    68.4
 141    4:20   57.1    38    0.7   291      1.9   961.2    0.00       0    68.3
 141    4:30   55.4    43    2.0   310      3.2   961.2    0.00       0    68.1
 141    4:40   55.7    43    0.9   341      1.5   961.4    0.00       0    68.0
 141    4:50   55.7    44    1.4   342      2.3   961.5    0.00       1    67.9
 141    5:00   56.6    39    1.2   277      2.4   961.6    0.00       3    67.9
 141    5:10   58.0    39    1.4   294      2.9   961.7    0.00       1    68.0
 141    5:20   58.0    38    1.5   290      4.3   961.7    0.00       0    68.0
 141    5:30   58.4    39    2.1   311      3.5   961.8    0.00       0    68.1
 141    5:40   58.7    38    2.2   303      3.4   961.9    0.00       0    68.1
 141    5:50   59.4    36    2.0   294      4.0   961.8    0.00       0    68.3
 141    6:00   60.0    35    2.6   296      4.5   962.0    0.00       0    68.4
 141    6:10   60.5    36    1.9   305      3.1   962.1    0.00       0    68.5
 141    6:20   61.3    34    2.3   295      4.0   962.2    0.00       0    68.8
 141    6:30   62.1    33    2.1   299      3.7   962.3    0.00       0    69.0
 141    6:40   63.4    32    1.6   299      2.7   962.4    0.00      20    69.4
 141    6:50   65.2    30    2.7   313      3.8   962.6    0.00      42    70.3
 141    7:00   66.2    30    2.8   321      4.2   962.8    0.00       1    71.3
 141    7:10   66.6    29    2.8   319      4.5   963.0    0.00       0    71.7
 141    7:20   67.4    29    2.5   303      3.6   963.1    0.00       0    72.3
 141    7:30   68.3    28    2.7   306      4.1   963.2    0.00       0    73.1
 141    7:40   69.0    26    2.7   303      4.4   963.3    0.00      15    74.0
 141    7:50   70.1    25    3.2   318      4.7   963.3    0.00      19    74.6
 141    8:00   71.6    22    2.9   326      4.4   963.2    0.00       0    75.8
 141    8:10   73.0    22    2.1   353      4.0   963.3    0.00       2    76.9
 141    8:20   74.5    21    1.3   336      3.6   963.4    0.00       0    78.2
 141    8:30   76.9    20    1.0    20      2.9   963.5    0.00     100    79.8
 141    8:40   77.7    19    1.2    43      3.4   963.7    0.00       5    81.9
 141    8:50   77.8    18    1.7   119      3.9   963.9    0.00      48    83.7
 141    9:00   78.6    17    1.7    88      4.2   964.0    0.00      25    85.2
 141    9:10   79.2    17    2.1   145      4.0   964.1    0.00       0    86.6
 141    9:20   79.6    16    2.8   116      7.7   964.1    0.00       0    87.6
 141    9:30   79.6    17    4.1   150      8.2   964.1    0.00       2    88.5
 141    9:40   80.6    16    4.6   123     10.3   964.1    0.00       1    89.3
 141    9:50   81.6    16    4.5   137     12.1   964.1    0.00       3    90.2
 141   10:00   81.4    15    7.6   172     13.2   964.0    0.00       0    91.1
 141   10:10   82.0    14    5.7   163     10.4   964.0    0.00       0    91.9
 141   10:20   82.3    14    7.5   169     15.4   964.1    0.00       0    92.9
 141   10:30   82.7    14    6.8   159     16.6   964.1    0.00       0    93.7
 141   10:40   82.7    14    6.8   156     12.5   964.1    0.00       0    93.8
 141   10:50   82.1    14    6.0   132     13.6   964.0    0.00       0    92.6
 141   11:00   81.7    14    6.2   140     11.2   963.8    0.00       0    91.4
 141   11:10   81.8    14    5.0   150     10.2   963.6    0.00       0    90.5
 141   11:20   82.0    14    5.6   147     10.7   963.5    0.00       0    90.2
 141   11:30   82.3    13    5.5   167     10.5   963.4    0.00       0    90.1
 141   11:40   82.6    13    6.5   173     10.4   963.3    0.00       0    90.1
 141   11:50   83.2    12    6.4   155     12.9   963.3    0.00       0    90.0
 141   12:00   82.8    12    7.1   168     14.5   963.2    0.00      21    89.9
 141   12:10   82.8    12    8.9   176     14.1   963.2    0.00     401    89.6
 141   12:20   83.2    12    7.2   164     15.7   963.1    0.00     627    89.4
 141   12:30   84.3    12    7.8   163     14.2   963.1    0.00     452    89.7
 141   12:40   84.1    13    8.3   105     22.6   963.2    0.00       0    90.1
 141   12:50   82.6    14   11.4    87     22.6   963.2    0.00       1    90.0
 141   13:00   82.5    14    9.8    81     20.5   963.0    0.00       1    89.6
 141   13:10   82.8    14    7.0    84     12.7   962.8    0.00       0    89.4

Return to Overton, Nevada graphs page.


Western Regional Climate Center,wrcc@dri.edu